Weather reports worldwide

Advertisment
Bealach, United Kingdom (3039): temperature & dewpoint: 04.12.2018 14:00:00 - 10.12.2018 14:00:00 (GMT)Bealach, United Kingdom (3039): wind speed & gusts: 04.12.2018 14:00:00 - 10.12.2018 14:00:00 (GMT)Bealach, United Kingdom (3039): wind direction: 04.12.2018 14:00:00 - 10.12.2018 14:00:00 (GMT)
Date & Time tt [°C] td [°C] ff [km/h] ff [kn] fx [km/h] fx [kn] dd
10.12.2018 14:00:00 -1,3 -2,3 15 8 - - S
10.12.2018 13:00:00 -1,6 -2,4 13 7 - - SSE
10.12.2018 12:00:00 -1,2 -1,6 15 8 - - SSE
10.12.2018 11:00:00 -1,7 -1,9 9 5 - - S
10.12.2018 10:00:00 -2,1 -2,1 4 2 - - WNW
10.12.2018 09:00:00 -2,0 -2,1 9 5 - - N
10.12.2018 08:00:00 -1,6 -1,6 11 6 - - NNE
10.12.2018 07:00:00 -1,4 -1,4 15 8 - - N
10.12.2018 06:00:00 -1,4 -1,4 15 8 - - NNW
10.12.2018 05:00:00 -1,4 -1,4 21 11 - - NNW
10.12.2018 04:00:00 -1,3 -1,3 21 11 - - NNW
10.12.2018 03:00:00 -1,0 -1,0 24 13 - - N
10.12.2018 02:00:00 -0,8 -0,8 24 13 - - NW
10.12.2018 01:00:00 -0,8 -0,8 28 15 - - NNW
10.12.2018 00:00:00 -0,7 -0,7 24 13 - - NW
09.12.2018 23:00:00 -0,6 -0,6 26 14 - - NNW
09.12.2018 22:00:00 -0,6 -0,6 26 14 - - NW
09.12.2018 21:00:00 -0,6 -0,6 29 16 - - NW
09.12.2018 20:00:00 -0,9 -0,9 28 15 - - NNW
09.12.2018 19:00:00 -0,5 -0,5 31 17 - - WNW
09.12.2018 18:00:00 -0,5 -0,5 26 14 - - WNW
09.12.2018 17:00:00 -0,8 -0,8 21 11 - - WNW
09.12.2018 16:00:00 -1,2 -1,2 13 7 - - W
09.12.2018 15:00:00 -1,2 -1,2 11 6 - - N
09.12.2018 14:00:00 -1,3 -1,3 13 7 - - N
09.12.2018 13:00:00 -1,3 -1,3 13 7 - - NNE
09.12.2018 12:00:00 -1,5 -2,0 24 13 - - NNE
09.12.2018 11:00:00 -1,4 -1,4 22 12 - - NNE
09.12.2018 10:00:00 -1,5 -1,5 35 19 48 26 N
09.12.2018 09:00:00 -0,8 -0,8 26 14 46 25 N
09.12.2018 08:00:00 -0,5 -0,5 34 18 52 28 N
09.12.2018 07:00:00 -0,8 -0,8 37 20 48 26 N
09.12.2018 06:00:00 -0,3 -0,3 31 17 - - N
09.12.2018 05:00:00 -0,5 -0,5 28 15 52 28 N
09.12.2018 04:00:00 -0,3 -0,3 46 25 61 33 NNE
09.12.2018 03:00:00 -0,4 -0,4 37 20 59 32 NNE
09.12.2018 02:00:00 -0,1 -0,1 34 18 48 26 NNE
09.12.2018 01:00:00 0,2 0,2 28 15 - - NNE
09.12.2018 00:00:00 0,3 0,3 28 15 - - NNE
08.12.2018 23:00:00 0,5 0,5 21 11 - - NNE
08.12.2018 22:00:00 0,4 0,4 21 11 - - NNE
08.12.2018 21:00:00 0,8 0,8 26 14 - - NNE
08.12.2018 20:00:00 1,0 1,0 21 11 - - NNE
08.12.2018 19:00:00 1,1 1,1 22 12 - - NNW
08.12.2018 18:00:00 1,2 1,2 22 12 - - N
08.12.2018 17:00:00 2,0 2,0 26 14 - - WNW
08.12.2018 16:00:00 2,0 2,0 28 15 - - NW
08.12.2018 15:00:00 2,0 2,0 31 17 - - NW
08.12.2018 14:00:00 2,2 2,2 35 19 54 29 NW
08.12.2018 13:00:00 2,2 2,2 37 20 52 28 WNW
08.12.2018 12:00:00 2,1 2,1 37 20 52 28 WNW
08.12.2018 11:00:00 2,4 2,4 46 25 65 35 WNW
08.12.2018 10:00:00 2,5 2,5 48 26 65 35 WNW
08.12.2018 09:00:00 2,5 2,5 52 28 67 36 WNW
08.12.2018 08:00:00 2,5 2,5 54 29 78 42 WNW
08.12.2018 07:00:00 2,8 2,8 68 37 93 50 NW
08.12.2018 06:00:00 2,6 2,6 70 38 98 53 NW
08.12.2018 05:00:00 2,5 2,5 76 41 98 53 NW
08.12.2018 04:00:00 2,4 2,4 80 43 102 55 WNW
08.12.2018 03:00:00 2,8 2,8 80 43 98 53 WNW
08.12.2018 02:00:00 2,4 2,4 65 35 85 46 WNW
08.12.2018 01:00:00 2,3 2,3 74 40 94 51 WNW
08.12.2018 00:00:00 2,3 2,3 67 36 85 46 WNW
07.12.2018 23:00:00 2,8 2,8 70 38 89 48 NW
07.12.2018 22:00:00 2,6 2,6 72 39 93 50 WNW
07.12.2018 21:00:00 2,8 2,8 76 41 98 53 WNW
07.12.2018 20:00:00 2,6 2,6 72 39 104 56 W
07.12.2018 19:00:00 2,3 2,3 78 42 120 65 W
07.12.2018 18:00:00 2,4 2,4 78 42 117 63 W
07.12.2018 17:00:00 2,1 2,1 87 47 124 67 WSW
07.12.2018 16:00:00 1,5 1,5 98 53 133 72 WSW
07.12.2018 15:00:00 1,3 1,3 98 53 135 73 WSW
07.12.2018 14:00:00 1,4 1,4 89 48 126 68 WSW
07.12.2018 13:00:00 0,8 0,8 81 44 135 73 WSW
07.12.2018 12:00:00 0,2 0,2 91 49 119 64 WSW
07.12.2018 11:00:00 1,0 1,0 67 36 113 61 SW
07.12.2018 10:00:00 1,2 1,2 80 43 135 73 SSW
07.12.2018 09:00:00 1,2 1,2 93 50 126 68 SSW
07.12.2018 08:00:00 1,7 1,7 96 52 141 76 SSW
07.12.2018 07:00:00 1,8 1,8 85 46 128 69 S
07.12.2018 06:00:00 2,2 2,2 70 38 128 69 S
07.12.2018 05:00:00 3,0 3,0 78 42 141 76 S
07.12.2018 04:00:00 4,7 4,7 57 31 100 54 SSE
07.12.2018 03:00:00 2,9 2,9 18 10 55 30 ESE
07.12.2018 02:00:00 2,9 2,9 13 7 - - N
07.12.2018 01:00:00 3,1 3,1 13 7 55 30 ENE
07.12.2018 00:00:00 3,2 3,2 31 17 81 44 S
06.12.2018 23:00:00 3,8 3,8 35 19 81 44 SSE
06.12.2018 22:00:00 4,0 4,0 52 28 68 37 S
06.12.2018 21:00:00 3,8 3,8 46 25 70 38 SSW
06.12.2018 20:00:00 3,9 3,9 44 24 61 33 SSW
06.12.2018 19:00:00 3,2 3,2 39 21 67 36 SW
06.12.2018 18:00:00 3,3 3,3 41 22 72 39 WSW
06.12.2018 17:00:00 3,4 3,4 41 22 63 34 WSW
06.12.2018 16:00:00 3,7 3,7 50 27 70 38 WSW
06.12.2018 15:00:00 3,8 3,8 54 29 67 36 WSW
06.12.2018 14:00:00 3,8 3,8 54 29 80 43 WSW
06.12.2018 13:00:00 3,6 3,6 50 27 81 44 WSW
06.12.2018 12:00:00 4,7 4,7 42 23 72 39 WSW
06.12.2018 11:00:00 5,8 5,8 57 31 74 40 WSW
06.12.2018 10:00:00 6,8 6,8 61 33 100 54 SSW
06.12.2018 09:00:00 5,9 5,9 83 45 107 58 SSW
06.12.2018 08:00:00 5,0 5,0 31 17 87 47 SSE
06.12.2018 07:00:00 4,4 4,4 37 20 80 43 S
06.12.2018 06:00:00 3,6 3,6 54 29 81 44 SSE
06.12.2018 05:00:00 2,5 2,5 26 14 59 32 SE
06.12.2018 04:00:00 1,7 1,7 21 11 54 29 SE
06.12.2018 03:00:00 1,9 1,9 42 23 54 29 SSE
06.12.2018 02:00:00 1,3 1,3 31 17 55 30 SSE
06.12.2018 01:00:00 0,6 0,6 16 9 46 25 ESE
06.12.2018 00:00:00 0,6 0,4 35 19 46 25 SSE
05.12.2018 23:00:00 0,1 0,0 16 9 - - SE
05.12.2018 22:00:00 -0,1 -0,2 22 12 - - E
05.12.2018 21:00:00 -0,3 -0,4 22 12 - - E
05.12.2018 20:00:00 -0,4 -0,5 22 12 57 31 ESE
05.12.2018 19:00:00 -1,0 -1,2 22 12 57 31 ESE
05.12.2018 18:00:00 -1,0 -1,4 18 10 - - ESE
05.12.2018 17:00:00 -0,9 -1,3 16 9 - - ESE
05.12.2018 16:00:00 -1,3 -1,9 18 10 - - ESE
05.12.2018 15:00:00 -1,9 -3,1 18 10 - - ESE
05.12.2018 14:00:00 -2,2 -4,3 21 11 - - ESE
05.12.2018 13:00:00 -1,8 -4,5 15 8 - - ESE
05.12.2018 12:00:00 -2,3 -4,9 18 10 - - ESE
05.12.2018 11:00:00 -2,6 -4,2 15 8 - - ESE
05.12.2018 10:00:00 -2,6 -4,2 26 14 - - ESE
05.12.2018 09:00:00 -2,8 -4,2 22 12 - - ESE
05.12.2018 08:00:00 -2,7 -4,2 21 11 - - ESE
05.12.2018 07:00:00 -2,5 -3,8 15 8 - - E
05.12.2018 06:00:00 -2,7 -3,7 4 2 - - ESE
05.12.2018 05:00:00 -2,2 -3,6 8 4 - - ESE
05.12.2018 04:00:00 -2,0 -2,7 5 3 - - SE
05.12.2018 03:00:00 -2,1 -3,2 11 6 - - S
05.12.2018 02:00:00 -2,1 -3,5 15 8 - - SW
05.12.2018 01:00:00 -2,3 -4,0 16 9 - - WSW
05.12.2018 00:00:00 -2,4 -3,7 18 10 - - WSW
04.12.2018 23:00:00 -2,4 -3,4 24 13 - - W
04.12.2018 22:00:00 -2,2 -3,0 24 13 - - SW
04.12.2018 21:00:00 -2,4 -3,1 22 12 - - WSW
04.12.2018 20:00:00 -2,4 -2,7 29 16 - - WSW
04.12.2018 19:00:00 -1,6 -1,6 24 13 - - W
04.12.2018 18:00:00 -1,0 -1,0 26 14 - - WSW
04.12.2018 17:00:00 -1,2 -1,2 26 14 - - W
04.12.2018 16:00:00 -0,8 -0,8 29 16 - - W
04.12.2018 15:00:00 -0,7 -0,7 29 16 - - W
04.12.2018 14:00:00 -0,6 -0,6 24 13 - - W

tt = temperature
td = dewpoint
ff = wind speed
fx = gusts
dd = wind direction

Next stations